Time;durP1;ratioP1;P1;durP2;ratioP2;P2;SDS_P1;SDS_P2;PMS_P1;PMS_P2;Temp;Humidity;BMP_temperature;BMP_pressure;BME280_temperature;BME280_humidity;BME280_pressure;Samples;Min_cycle;Max_cycle;Signal;HPM_P1;HPM_P2
2023/11/02 00:02:22;;;;;;;0.93;0.90;;;10.20;99.90;;;;;;5033840;28;20450;-63
2023/11/02 00:04:49;;;;;;;2.10;1.27;;;10.20;99.90;;;;;;5034021;28;20450;-63
2023/11/02 00:07:16;;;;;;;1.77;1.67;;;10.10;99.90;;;;;;5034353;28;20840;-63
2023/11/02 00:09:44;;;;;;;1.03;0.90;;;10.10;99.90;;;;;;5034560;28;20445;-63
2023/11/02 00:12:15;;;;;;;1.50;1.10;;;10.00;99.90;;;;;;5034254;28;20545;-63
2023/11/02 00:14:47;;;;;;;3.73;1.40;;;10.00;99.90;;;;;;5034241;28;20449;-63
2023/11/02 00:17:55;;;;;;;1.47;1.00;;;9.90;99.90;;;;;;5033976;28;20469;-63
2023/11/02 00:20:34;;;;;;;8.43;1.87;;;9.80;99.90;;;;;;5034253;28;20449;-63
2023/11/02 00:23:01;;;;;;;1.10;1.00;;;9.80;99.90;;;;;;5034129;28;20477;-63
2023/11/02 00:25:46;;;;;;;5.83;1.40;;;9.70;99.90;;;;;;5033624;28;20478;-63
2023/11/02 00:28:13;;;;;;;1.33;1.05;;;9.60;99.90;;;;;;5034446;28;20449;-63
2023/11/02 00:30:44;;;;;;;4.47;1.53;;;9.60;99.90;;;;;;5034240;28;20297;-63
2023/11/02 00:33:13;;;;;;;3.00;1.40;;;9.60;99.90;;;;;;5034157;28;20537;-62
2023/11/02 00:35:44;;;;;;;1.33;0.93;;;9.50;99.90;;;;;;5033605;28;20468;-62
2023/11/02 00:38:11;;;;;;;1.55;1.20;;;9.50;99.90;;;;;;5033730;28;20450;-63
2023/11/02 00:40:38;;;;;;;2.45;1.27;;;9.40;99.90;;;;;;5034062;28;20238;-63
2023/11/02 00:43:06;;;;;;;1.70;1.13;;;9.40;99.90;;;;;;5033580;28;20436;-63
2023/11/02 00:45:38;;;;;;;7.50;1.40;;;9.30;99.90;;;;;;5033828;28;20235;-63
2023/11/02 00:48:13;;;;;;;1.73;1.63;;;9.30;99.90;;;;;;5033762;28;20541;-63
2023/11/02 00:51:11;;;;;;;1.98;1.38;;;9.20;99.90;;;;;;5033671;28;20214;-62
2023/11/02 00:53:44;;;;;;;1.40;1.30;;;9.10;99.90;;;;;;5032162;28;20233;-63
2023/11/02 00:56:12;;;;;;;1.42;1.33;;;9.10;99.90;;;;;;5033480;28;20717;-63
2023/11/02 00:58:44;;;;;;;1.23;1.20;;;9.00;99.90;;;;;;5034000;28;20279;-63
2023/11/02 01:01:13;;;;;;;1.50;1.40;;;9.00;99.90;;;;;;5034015;28;20453;-63
2023/11/02 01:03:48;;;;;;;2.03;1.50;;;9.00;99.90;;;;;;5033578;28;20486;-63
2023/11/02 01:06:21;;;;;;;2.00;1.43;;;8.90;99.90;;;;;;5033368;28;20472;-63
2023/11/02 01:08:57;;;;;;;2.05;1.45;;;8.90;99.90;;;;;;5033638;28;20457;-62
2023/11/02 01:11:29;;;;;;;4.00;1.80;;;8.80;99.90;;;;;;5033416;28;20654;-63
2023/11/02 01:13:57;;;;;;;5.47;2.00;;;8.80;99.90;;;;;;5033468;28;20817;-62
2023/11/02 01:16:24;;;;;;;3.70;1.52;;;8.70;99.90;;;;;;5033588;28;20235;-63
2023/11/02 01:18:52;;;;;;;1.60;1.50;;;8.70;99.90;;;;;;5033732;28;20297;-63
2023/11/02 01:21:19;;;;;;;1.52;1.45;;;8.70;99.90;;;;;;5033897;28;20226;-63
2023/11/02 01:23:46;;;;;;;2.40;1.95;;;8.60;99.90;;;;;;5033123;28;20322;-63
2023/11/02 01:26:49;;;;;;;1.55;1.45;;;8.60;99.90;;;;;;5033276;28;20230;-63
2023/11/02 01:29:16;;;;;;;2.20;1.83;;;8.60;99.90;;;;;;5032847;28;20748;-63
2023/11/02 01:31:43;;;;;;;2.15;1.38;;;8.50;99.90;;;;;;5033584;28;20207;-63
2023/11/02 01:34:17;;;;;;;5.63;2.28;;;8.40;99.90;;;;;;5033456;28;20285;-63
2023/11/02 01:36:44;;;;;;;1.98;1.50;;;8.50;99.90;;;;;;5033278;28;20318;-63
2023/11/02 01:39:46;;;;;;;1.38;1.30;;;8.40;99.90;;;;;;5032924;28;20215;-63
2023/11/02 01:42:20;;;;;;;1.15;1.15;;;8.40;99.90;;;;;;5033126;28;20206;-63
2023/11/02 01:44:51;;;;;;;1.92;1.50;;;8.40;99.90;;;;;;5032778;28;20273;-63
2023/11/02 01:47:36;;;;;;;1.30;1.20;;;8.30;99.90;;;;;;5032700;28;20222;-63
2023/11/02 01:50:13;;;;;;;2.60;1.50;;;8.30;99.90;;;;;;5033146;28;20206;-63
2023/11/02 01:52:57;;;;;;;2.30;1.55;;;8.30;99.90;;;;;;5033039;28;20297;-63
2023/11/02 01:55:41;;;;;;;1.73;1.05;;;8.30;99.90;;;;;;5032744;28;20318;-63
2023/11/02 01:58:18;;;;;;;1.85;1.70;;;8.20;99.90;;;;;;5033224;28;20202;-62
2023/11/02 02:00:54;;;;;;;1.92;1.42;;;8.20;99.90;;;;;;5032729;28;20589;-63
2023/11/02 02:03:31;;;;;;;4.28;1.60;;;8.20;99.90;;;;;;5031309;28;20588;-63
2023/11/02 02:06:06;;;;;;;1.40;1.33;;;8.20;99.90;;;;;;5031935;28;20614;-63
2023/11/02 02:08:46;;;;;;;1.98;1.50;;;8.20;99.90;;;;;;5031672;28;20213;-63
2023/11/02 02:11:23;;;;;;;1.25;1.25;;;8.10;99.90;;;;;;5027951;28;20203;-63
2023/11/02 02:14:00;;;;;;;2.45;1.85;;;8.10;99.90;;;;;;5030776;28;20625;-63
2023/11/02 02:16:35;;;;;;;2.88;2.67;;;8.10;99.90;;;;;;5032541;28;20227;-63
2023/11/02 02:19:14;;;;;;;1.58;1.50;;;8.10;99.90;;;;;;5032648;28;20210;-63
2023/11/02 02:21:52;;;;;;;2.15;1.30;;;8.10;99.90;;;;;;5032401;28;20242;-63
2023/11/02 02:24:29;;;;;;;1.50;1.40;;;8.10;99.90;;;;;;5032314;28;20229;-63
2023/11/02 02:27:26;;;;;;;1.95;1.52;;;8.00;99.90;;;;;;5031403;28;20260;-63
2023/11/02 02:30:12;;;;;;;2.33;2.22;;;8.00;99.90;;;;;;5026099;28;20207;-63
2023/11/02 02:33:07;;;;;;;1.38;1.27;;;8.00;99.90;;;;;;5031969;28;20306;-63
2023/11/02 02:35:37;;;;;;;1.52;1.42;;;8.00;99.90;;;;;;5032100;28;20603;-63
2023/11/02 02:38:07;;;;;;;4.57;1.60;;;8.00;99.90;;;;;;5032152;28;20214;-63
2023/11/02 02:40:35;;;;;;;4.88;1.27;;;8.00;99.90;;;;;;5031926;28;20290;-63
2023/11/02 02:43:03;;;;;;;2.55;1.75;;;8.00;99.90;;;;;;5031663;28;20215;-63
2023/11/02 02:45:34;;;;;;;1.30;1.17;;;8.00;99.90;;;;;;5031802;28;20254;-63
2023/11/02 02:48:02;;;;;;;1.70;1.15;;;8.00;99.90;;;;;;5032100;28;20213;-63
2023/11/02 02:50:31;;;;;;;2.50;1.10;;;8.00;99.90;;;;;;5031934;28;20211;-63
2023/11/02 02:53:00;;;;;;;1.50;1.40;;;8.10;99.90;;;;;;5031295;28;20207;-63
2023/11/02 02:55:29;;;;;;;1.40;1.27;;;8.10;99.90;;;;;;5031514;28;20607;-63
2023/11/02 02:57:59;;;;;;;1.70;1.45;;;8.10;99.90;;;;;;5031770;28;20199;-63
2023/11/02 03:00:28;;;;;;;1.60;1.50;;;8.10;99.90;;;;;;5031888;28;20325;-63
2023/11/02 03:02:58;;;;;;;1.45;1.35;;;8.20;99.90;;;;;;5031349;28;20207;-63
2023/11/02 03:05:25;;;;;;;2.45;1.60;;;8.20;99.90;;;;;;5031298;28;20237;-63
2023/11/02 03:07:54;;;;;;;2.85;2.00;;;8.20;99.90;;;;;;5031412;28;20230;-63
2023/11/02 03:10:25;;;;;;;1.10;1.00;;;8.30;99.90;;;;;;5031527;28;20208;-62
2023/11/02 03:13:00;;;;;;;1.10;1.02;;;8.30;99.90;;;;;;5031437;28;20249;-63
2023/11/02 03:15:29;;;;;;;1.50;1.30;;;8.30;99.90;;;;;;5031045;28;20252;-63
2023/11/02 03:18:09;;;;;;;0.85;0.85;;;8.30;99.90;;;;;;5031601;28;20211;-63
2023/11/02 03:20:35;;;;;;;1.23;1.13;;;8.30;99.90;;;;;;5031413;28;20235;-63
2023/11/02 03:23:09;;;;;;;2.78;1.30;;;8.30;99.90;;;;;;5031456;28;20211;-63
2023/11/02 03:25:48;;;;;;;1.55;1.45;;;8.40;99.90;;;;;;5030895;28;20322;-63
2023/11/02 03:28:23;;;;;;;4.22;1.35;;;8.30;99.90;;;;;;5031409;28;20206;-63
2023/11/02 03:31:01;;;;;;;3.30;1.58;;;8.40;99.90;;;;;;5031216;28;20297;-63
2023/11/02 03:33:32;;;;;;;1.52;1.15;;;8.40;99.90;;;;;;5031748;28;20207;-63
2023/11/02 03:36:07;;;;;;;1.40;1.30;;;8.40;99.90;;;;;;5031221;28;20229;-63
2023/11/02 03:38:47;;;;;;;1.10;1.05;;;8.40;99.90;;;;;;5031338;28;20212;-63
2023/11/02 03:41:23;;;;;;;0.98;0.98;;;8.30;99.90;;;;;;5031374;28;20299;-63
2023/11/02 03:43:59;;;;;;;4.25;1.92;;;8.30;99.90;;;;;;5031283;28;20602;-63
2023/11/02 03:46:40;;;;;;;1.63;1.52;;;8.30;99.90;;;;;;5031104;28;20313;-63
2023/11/02 03:49:24;;;;;;;1.20;1.10;;;8.30;99.90;;;;;;5031227;28;20238;-63
2023/11/02 03:52:04;;;;;;;1.85;1.58;;;8.30;99.90;;;;;;5031129;28;20881;-63
2023/11/02 03:54:56;;;;;;;1.25;1.17;;;8.30;99.90;;;;;;5031325;28;20226;-63
2023/11/02 03:57:31;;;;;;;2.25;1.20;;;8.20;99.90;;;;;;5030907;28;20230;-63
2023/11/02 04:00:09;;;;;;;1.35;1.25;;;8.20;99.90;;;;;;5031178;28;20213;-63
2023/11/02 04:02:43;;;;;;;1.30;1.20;;;8.20;99.90;;;;;;5031590;28;20219;-63
2023/11/02 04:05:14;;;;;;;1.27;1.25;;;8.20;99.90;;;;;;5034052;28;20281;-63
2023/11/02 04:07:59;;;;;;;2.65;1.50;;;8.10;99.90;;;;;;5034836;28;20206;-63
2023/11/02 04:10:29;;;;;;;1.70;1.50;;;8.20;99.90;;;;;;5034426;28;20207;-63
2023/11/02 04:13:10;;;;;;;1.60;1.35;;;8.20;99.90;;;;;;5035124;28;20269;-63
2023/11/02 04:15:37;;;;;;;4.88;1.95;;;8.20;99.90;;;;;;5034404;28;20277;-63
2023/11/02 04:18:04;;;;;;;1.20;1.20;;;8.20;99.90;;;;;;5034494;28;20294;-63
2023/11/02 04:20:31;;;;;;;3.50;1.40;;;8.10;99.90;;;;;;5033229;28;20207;-63
2023/11/02 04:22:58;;;;;;;1.77;1.67;;;8.20;99.90;;;;;;5035121;28;20245;-63
2023/11/02 04:25:25;;;;;;;2.08;1.90;;;8.20;99.90;;;;;;5034285;28;20777;-63
2023/11/02 04:27:53;;;;;;;2.50;2.30;;;8.20;99.90;;;;;;5034658;28;20207;-63
2023/11/02 04:30:22;;;;;;;2.58;2.38;;;8.20;99.90;;;;;;5034833;28;20203;-63
2023/11/02 04:32:49;;;;;;;4.20;3.83;;;8.30;99.90;;;;;;5034703;28;20693;-63
2023/11/02 04:35:16;;;;;;;2.90;2.70;;;8.30;99.90;;;;;;5034143;28;20757;-63
2023/11/02 04:37:43;;;;;;;2.70;2.50;;;8.40;99.90;;;;;;5034275;28;20297;-63
2023/11/02 04:40:11;;;;;;;4.18;2.92;;;8.40;99.90;;;;;;5034599;28;20302;-63
2023/11/02 04:42:38;;;;;;;4.63;4.05;;;8.50;99.90;;;;;;5034268;28;20211;-63
2023/11/02 04:45:06;;;;;;;4.32;4.03;;;8.60;99.90;;;;;;5034130;28;20231;-63
2023/11/02 04:47:35;;;;;;;4.55;3.95;;;8.60;99.90;;;;;;5034368;28;20207;-62
2023/11/02 04:50:01;;;;;;;4.85;4.35;;;8.70;99.90;;;;;;5034134;28;20289;-63
2023/11/02 04:52:36;;;;;;;5.18;4.78;;;8.80;99.90;;;;;;5034285;28;20211;-63
2023/11/02 04:55:04;;;;;;;5.10;3.70;;;8.80;99.90;;;;;;5033978;28;20588;-63
2023/11/02 04:57:31;;;;;;;3.85;3.45;;;8.80;99.90;;;;;;5033802;28;20238;-63
2023/11/02 05:00:00;;;;;;;4.00;3.60;;;8.90;99.90;;;;;;5033226;28;20306;-62
2023/11/02 05:02:27;;;;;;;4.38;4.05;;;8.90;99.90;;;;;;5033644;28;20457;-63
2023/11/02 05:04:55;;;;;;;4.33;3.93;;;9.00;99.90;;;;;;5033794;28;20227;-63
2023/11/02 05:07:22;;;;;;;4.07;3.67;;;9.00;99.90;;;;;;5033159;28;21035;-63
2023/11/02 05:09:49;;;;;;;6.90;4.65;;;9.10;99.90;;;;;;5033436;28;20213;-63
2023/11/02 05:12:16;;;;;;;4.20;3.80;;;9.10;99.90;;;;;;5033583;28;20207;-63
2023/11/02 05:14:44;;;;;;;4.35;4.05;;;9.10;99.90;;;;;;5032598;28;20293;-63
2023/11/02 05:17:10;;;;;;;3.53;3.23;;;9.20;99.90;;;;;;5032592;28;20230;-63
2023/11/02 05:19:38;;;;;;;4.97;4.57;;;9.20;99.90;;;;;;5033428;28;20453;-62
2023/11/02 05:22:07;;;;;;;4.27;3.90;;;9.20;99.90;;;;;;5033517;28;20450;-62
2023/11/02 05:24:34;;;;;;;3.63;3.30;;;9.30;99.90;;;;;;5032837;28;20486;-63
2023/11/02 05:29:28;;;;;;;4.53;3.10;;;9.30;99.90;;;;;;5054690;22;20235;-63
2023/11/02 05:31:55;;;;;;;2.90;2.70;;;9.30;99.90;;;;;;5033025;28;20207;-63
2023/11/02 05:34:22;;;;;;;3.40;3.20;;;9.30;99.90;;;;;;5032923;28;20203;-63
2023/11/02 05:36:49;;;;;;;4.30;3.37;;;9.30;99.90;;;;;;5037709;28;20834;-63
2023/11/02 05:39:17;;;;;;;3.15;2.85;;;9.30;99.90;;;;;;5032505;28;20539;-63
2023/11/02 05:41:44;;;;;;;4.30;3.63;;;9.30;99.90;;;;;;5032539;28;20207;-63
2023/11/02 05:44:11;;;;;;;3.50;3.27;;;9.30;99.90;;;;;;5032791;28;20485;-62
2023/11/02 05:46:38;;;;;;;4.03;3.63;;;9.30;99.90;;;;;;5030303;28;20450;-63
2023/11/02 05:49:05;;;;;;;3.00;2.80;;;9.30;99.90;;;;;;5031680;28;20254;-62
2023/11/02 05:51:32;;;;;;;6.07;3.33;;;9.30;99.90;;;;;;5032216;28;20218;-63
2023/11/02 05:53:58;;;;;;;4.65;3.00;;;9.30;99.90;;;;;;5032055;28;20273;-64
2023/11/02 05:56:27;;;;;;;3.80;3.17;;;9.30;99.90;;;;;;5031884;28;20203;-64
2023/11/02 05:58:56;;;;;;;3.70;3.40;;;9.30;99.90;;;;;;5032083;28;20739;-63
2023/11/02 06:01:24;;;;;;;3.93;3.67;;;9.40;99.90;;;;;;5031986;28;20302;-63
2023/11/02 06:03:51;;;;;;;4.10;2.85;;;9.40;99.90;;;;;;5032071;28;20449;-62
2023/11/02 06:06:18;;;;;;;2.30;2.20;;;9.40;99.90;;;;;;5031544;28;20286;-63
2023/11/02 06:08:44;;;;;;;2.60;2.40;;;9.40;99.90;;;;;;5031766;28;20541;-64
2023/11/02 06:11:11;;;;;;;3.13;2.88;;;9.40;99.90;;;;;;5031787;28;20640;-62
2023/11/02 06:13:39;;;;;;;11.13;4.03;;;9.40;99.90;;;;;;5031874;28;20294;-63
2023/11/02 06:16:08;;;;;;;4.70;2.50;;;9.40;99.90;;;;;;5031767;28;20203;-64
2023/11/02 06:18:35;;;;;;;2.70;2.13;;;9.40;99.90;;;;;;5031961;28;20473;-63
2023/11/02 06:21:02;;;;;;;3.25;2.72;;;9.40;99.90;;;;;;5031411;28;20533;-64
2023/11/02 06:23:29;;;;;;;2.00;1.90;;;9.40;99.90;;;;;;5031431;28;20223;-63
2023/11/02 06:25:56;;;;;;;5.32;2.20;;;9.40;99.90;;;;;;5030859;28;20223;-63
2023/11/02 06:28:23;;;;;;;2.22;1.90;;;9.50;99.90;;;;;;5031366;28;20729;-64
2023/11/02 06:30:52;;;;;;;1.87;1.77;;;9.50;99.90;;;;;;5031910;28;20235;-63
2023/11/02 06:33:25;;;;;;;3.92;2.15;;;9.50;99.90;;;;;;5031981;28;20442;-63
2023/11/02 06:35:52;;;;;;;2.03;1.92;;;9.50;99.90;;;;;;5031699;28;20294;-62
2023/11/02 06:38:21;;;;;;;5.28;2.50;;;9.50;99.90;;;;;;5031566;28;20728;-63
2023/11/02 06:40:48;;;;;;;2.90;2.65;;;9.50;99.90;;;;;;5031758;28;20306;-64
2023/11/02 06:43:15;;;;;;;5.15;3.60;;;9.50;99.90;;;;;;5031654;28;20211;-63
2023/11/02 06:45:42;;;;;;;5.90;4.50;;;9.50;99.90;;;;;;5031309;28;20230;-62
2023/11/02 06:48:10;;;;;;;6.75;4.00;;;9.50;99.90;;;;;;5031673;28;20553;-64
2023/11/02 06:50:37;;;;;;;4.50;3.23;;;9.50;99.90;;;;;;5031539;28;20214;-64
2023/11/02 06:53:04;;;;;;;5.53;3.03;;;9.50;99.90;;;;;;5031842;28;20437;-62
2023/11/02 06:55:31;;;;;;;3.63;3.00;;;9.60;99.90;;;;;;5031424;28;20544;-63
2023/11/02 06:57:58;;;;;;;3.58;3.28;;;9.60;99.90;;;;;;5031336;28;20318;-62
2023/11/02 07:00:25;;;;;;;3.10;2.70;;;9.50;99.90;;;;;;5030198;28;20217;-63
2023/11/02 07:02:52;;;;;;;4.33;2.87;;;9.60;99.90;;;;;;5030788;28;20460;-62
2023/11/02 07:05:20;;;;;;;4.18;2.60;;;9.60;99.90;;;;;;5030730;28;20823;-63
2023/11/02 07:07:49;;;;;;;2.88;2.67;;;9.60;99.90;;;;;;5030459;28;20322;-62
2023/11/02 07:10:16;;;;;;;5.90;4.03;;;9.60;99.90;;;;;;5030783;28;20230;-63
2023/11/02 07:12:43;;;;;;;5.87;2.30;;;9.60;99.90;;;;;;5030654;28;20452;-62
2023/11/02 07:15:11;;;;;;;1.83;1.73;;;9.60;99.90;;;;;;5030068;28;20448;-62
2023/11/02 07:17:38;;;;;;;4.35;2.25;;;9.70;99.90;;;;;;5030318;28;20557;-61
2023/11/02 07:20:06;;;;;;;2.33;2.22;;;9.70;99.90;;;;;;5031171;28;20339;-63
2023/11/02 07:22:34;;;;;;;2.73;2.10;;;9.70;99.90;;;;;;5030849;28;20753;-62
2023/11/02 07:25:02;;;;;;;1.98;1.85;;;9.70;99.90;;;;;;5030650;28;20492;-60
2023/11/02 07:27:30;;;;;;;3.00;1.95;;;9.70;99.90;;;;;;5030787;28;20653;-62
2023/11/02 07:29:57;;;;;;;2.00;1.90;;;9.70;99.90;;;;;;5030809;28;20211;-62
2023/11/02 07:32:24;;;;;;;2.42;1.80;;;9.70;99.90;;;;;;5028509;28;20445;-63
2023/11/02 07:34:51;;;;;;;4.50;1.63;;;9.70;99.90;;;;;;5030603;28;20783;-62
2023/11/02 07:37:18;;;;;;;5.00;2.00;;;9.70;99.90;;;;;;5030471;28;20444;-62
2023/11/02 07:39:46;;;;;;;2.27;2.10;;;9.70;99.90;;;;;;5034325;28;20450;-61
2023/11/02 07:42:13;;;;;;;3.80;2.90;;;9.70;99.90;;;;;;5034311;28;20460;-61
2023/11/02 07:44:40;;;;;;;3.87;2.17;;;9.70;99.90;;;;;;5033739;28;20464;-62
2023/11/02 07:47:07;;;;;;;2.37;2.20;;;9.80;99.90;;;;;;5033878;28;20453;-62
2023/11/02 07:49:33;;;;;;;2.20;2.10;;;9.70;99.90;;;;;;5034411;28;20448;-62
2023/11/02 07:52:01;;;;;;;2.97;2.53;;;9.70;99.90;;;;;;5034020;28;21002;-63
2023/11/02 07:54:28;;;;;;;2.03;1.93;;;9.80;99.90;;;;;;5033908;28;20445;-63
2023/11/02 07:56:57;;;;;;;6.53;4.10;;;9.70;99.90;;;;;;5034016;28;20442;-62
2023/11/02 07:59:23;;;;;;;4.50;4.10;;;9.70;99.90;;;;;;5033545;28;20898;-62
2023/11/02 08:01:50;;;;;;;7.40;6.80;;;9.70;99.90;;;;;;5034109;28;20447;-63
2023/11/02 08:04:17;;;;;;;2.53;2.33;;;9.70;99.90;;;;;;5034045;28;20587;-61
2023/11/02 08:06:44;;;;;;;2.87;2.53;;;9.70;99.90;;;;;;5033488;28;20576;-63
2023/11/02 08:09:11;;;;;;;2.67;2.47;;;9.70;99.90;;;;;;5033505;28;20465;-63
2023/11/02 08:11:39;;;;;;;2.53;2.30;;;9.70;99.90;;;;;;5033497;28;20530;-62
2023/11/02 08:14:07;;;;;;;2.43;2.30;;;9.70;99.90;;;;;;5033026;28;20458;-62
2023/11/02 08:16:35;;;;;;;2.80;2.60;;;9.80;99.90;;;;;;5031980;28;20433;-63
2023/11/02 08:19:02;;;;;;;2.20;2.10;;;9.80;99.90;;;;;;5033459;28;20462;-61
2023/11/02 08:21:29;;;;;;;3.37;2.90;;;9.80;99.90;;;;;;5033510;28;20437;-63
2023/11/02 08:23:57;;;;;;;7.00;4.97;;;9.80;99.90;;;;;;5033527;28;20533;-62
2023/11/02 08:26:24;;;;;;;2.73;2.53;;;9.80;99.90;;;;;;5032992;28;20532;-62
2023/11/02 08:28:52;;;;;;;2.90;2.70;;;9.80;99.90;;;;;;5033371;28;20539;-62
2023/11/02 08:31:24;;;;;;;3.00;2.70;;;9.80;99.90;;;;;;5033254;28;20442;-63
2023/11/02 08:33:51;;;;;;;3.63;2.70;;;9.80;99.90;;;;;;5020515;28;20533;-62
2023/11/02 08:36:18;;;;;;;3.47;2.33;;;9.80;99.90;;;;;;5033068;28;20445;-62
2023/11/02 08:38:45;;;;;;;5.63;1.70;;;9.80;99.90;;;;;;5033248;28;20572;-62
2023/11/02 08:41:20;;;;;;;2.57;2.37;;;9.80;99.90;;;;;;5032899;28;20951;-62
2023/11/02 08:43:47;;;;;;;3.97;3.67;;;9.90;99.90;;;;;;5033216;28;20480;-62
2023/11/02 08:46:17;;;;;;;3.53;3.05;;;9.90;99.90;;;;;;5032983;28;20592;-62
2023/11/02 08:48:45;;;;;;;3.17;2.88;;;9.90;99.90;;;;;;5032469;28;20736;-62
2023/11/02 08:51:15;;;;;;;3.10;2.90;;;9.90;99.90;;;;;;5032313;28;20207;-62
2023/11/02 08:53:42;;;;;;;2.93;2.73;;;9.90;99.90;;;;;;5032948;28;20782;-63
2023/11/02 08:56:10;;;;;;;3.25;2.65;;;9.90;99.90;;;;;;5032923;28;20474;-63
2023/11/02 08:58:41;;;;;;;2.13;1.90;;;9.90;99.90;;;;;;5032900;28;20418;-63
2023/11/02 09:01:10;;;;;;;2.65;2.45;;;9.90;99.90;;;;;;5032843;28;20446;-63
2023/11/02 09:03:37;;;;;;;2.03;1.83;;;9.90;99.90;;;;;;5032843;28;20289;-63
2023/11/02 09:06:06;;;;;;;3.13;2.00;;;9.90;99.90;;;;;;5032429;28;20488;-62
2023/11/02 09:08:34;;;;;;;2.30;2.10;;;9.90;99.90;;;;;;5032194;28;20540;-63
2023/11/02 09:11:01;;;;;;;2.10;1.97;;;9.90;99.90;;;;;;5032923;28;20504;-62
2023/11/02 09:13:28;;;;;;;2.77;2.60;;;10.00;99.90;;;;;;5016479;28;20488;-62
2023/11/02 09:15:55;;;;;;;2.70;2.40;;;10.00;99.90;;;;;;5032296;28;20810;-63
2023/11/02 09:18:22;;;;;;;2.00;1.70;;;10.00;99.90;;;;;;5032387;28;20479;-62
2023/11/02 09:20:50;;;;;;;2.60;1.67;;;10.00;99.90;;;;;;5032310;28;20963;-63
2023/11/02 09:23:18;;;;;;;2.20;2.10;;;10.00;99.90;;;;;;5032450;28;20442;-62
2023/11/02 09:25:46;;;;;;;2.27;2.07;;;10.00;99.90;;;;;;5032144;28;20477;-62
2023/11/02 09:28:13;;;;;;;3.80;3.00;;;10.00;99.90;;;;;;5032251;28;20483;-62
2023/11/02 09:30:41;;;;;;;2.13;2.03;;;10.00;99.90;;;;;;5032256;28;20446;-63
2023/11/02 09:33:08;;;;;;;1.57;1.47;;;10.10;99.90;;;;;;5032044;28;21068;-63
2023/11/02 09:35:35;;;;;;;3.97;1.73;;;10.10;99.90;;;;;;5031950;28;20957;-63
2023/11/02 09:38:03;;;;;;;1.90;1.60;;;10.10;99.90;;;;;;5032055;28;20462;-63
2023/11/02 09:40:32;;;;;;;1.83;1.70;;;10.20;99.90;;;;;;5032220;28;20445;-63
2023/11/02 09:43:02;;;;;;;1.63;1.53;;;10.20;99.90;;;;;;5032094;28;20527;-65
2023/11/02 09:45:30;;;;;;;1.90;1.80;;;10.30;99.90;;;;;;5015495;28;20540;-62
2023/11/02 09:47:57;;;;;;;2.27;1.80;;;10.30;99.90;;;;;;5032022;28;20470;-63
2023/11/02 09:50:24;;;;;;;2.13;1.67;;;10.30;99.90;;;;;;5031764;28;20454;-63
2023/11/02 09:52:51;;;;;;;1.77;1.67;;;10.40;99.90;;;;;;5031776;28;20450;-63
2023/11/02 09:55:18;;;;;;;1.87;1.77;;;10.40;99.90;;;;;;5031557;28;20918;-63
2023/11/02 09:57:48;;;;;;;2.83;1.67;;;10.40;99.90;;;;;;5031680;28;20466;-62
2023/11/02 10:00:17;;;;;;;1.80;1.70;;;10.50;99.90;;;;;;5030998;28;20457;-63
2023/11/02 10:02:47;;;;;;;1.77;1.67;;;10.50;99.90;;;;;;5031846;28;20868;-64
2023/11/02 10:05:14;;;;;;;1.70;1.60;;;10.50;99.90;;;;;;5031359;28;20544;-63
2023/11/02 10:07:42;;;;;;;2.00;1.80;;;10.60;99.90;;;;;;5031571;28;20470;-64
2023/11/02 10:10:10;;;;;;;2.57;2.37;;;10.60;99.90;;;;;;5031616;28;20952;-64
2023/11/02 10:12:37;;;;;;;2.30;1.60;;;10.60;99.90;;;;;;5031617;28;20446;-64
2023/11/02 10:15:07;;;;;;;2.00;1.63;;;10.70;99.90;;;;;;5031523;28;20529;-64
2023/11/02 10:17:35;;;;;;;2.27;1.30;;;10.70;99.90;;;;;;5031418;28;20457;-63
2023/11/02 10:20:08;;;;;;;2.10;1.90;;;10.80;99.90;;;;;;5031452;28;20821;-64
2023/11/02 10:22:35;;;;;;;1.50;1.30;;;10.80;99.90;;;;;;5031450;28;20454;-63
2023/11/02 10:25:03;;;;;;;2.30;1.60;;;10.90;99.90;;;;;;5030841;28;20959;-64
2023/11/02 10:27:30;;;;;;;1.27;1.10;;;10.90;99.90;;;;;;5030936;28;20489;-64
2023/11/02 10:29:57;;;;;;;1.43;1.33;;;11.00;99.90;;;;;;5031138;28;20529;-64
2023/11/02 10:32:25;;;;;;;1.70;1.60;;;11.00;99.90;;;;;;5031325;28;20524;-64
2023/11/02 10:34:52;;;;;;;0.90;0.90;;;11.00;99.90;;;;;;5031189;28;20525;-64
2023/11/02 10:37:30;;;;;;;1.20;1.20;;;11.00;99.90;;;;;;5030868;28;20525;-64
2023/11/02 10:39:57;;;;;;;1.13;1.03;;;11.00;99.90;;;;;;5031095;28;20453;-64
2023/11/02 10:42:25;;;;;;;1.40;1.30;;;11.00;99.90;;;;;;5030749;28;20895;-65
2023/11/02 10:44:52;;;;;;;1.40;1.30;;;11.00;99.90;;;;;;5030506;28;20472;-65
2023/11/02 10:47:20;;;;;;;1.03;1.03;;;11.00;99.90;;;;;;5030057;28;20568;-65
2023/11/02 10:49:53;;;;;;;2.77;2.03;;;11.00;99.90;;;;;;5030534;28;20536;-65
2023/11/02 10:52:29;;;;;;;1.77;1.60;;;11.00;99.90;;;;;;5030210;28;20939;-64
2023/11/02 10:55:03;;;;;;;1.80;1.60;;;11.00;99.90;;;;;;5030289;28;20468;-63
2023/11/02 10:57:31;;;;;;;2.30;2.17;;;11.00;99.90;;;;;;5013764;28;20511;-63
2023/11/02 11:00:00;;;;;;;1.97;1.87;;;11.00;99.90;;;;;;5029586;28;20446;-64
2023/11/02 11:02:27;;;;;;;2.33;1.50;;;11.00;99.90;;;;;;5029905;28;20442;-64
2023/11/02 11:04:55;;;;;;;2.00;1.77;;;11.00;99.90;;;;;;5030263;28;20556;-64
2023/11/02 11:07:22;;;;;;;3.13;2.57;;;11.00;99.90;;;;;;5030248;28;20552;-64
2023/11/02 11:09:50;;;;;;;1.13;1.00;;;11.00;99.90;;;;;;5030717;28;20525;-64
2023/11/02 11:12:18;;;;;;;1.43;1.33;;;10.90;99.90;;;;;;5028654;28;20453;-64
2023/11/02 11:14:46;;;;;;;0.97;0.93;;;11.00;99.90;;;;;;5029632;28;20449;-64
2023/11/02 11:17:14;;;;;;;1.60;1.40;;;11.00;99.90;;;;;;5030162;28;20445;-64
2023/11/02 11:19:42;;;;;;;2.20;1.50;;;11.00;99.90;;;;;;5030240;28;20893;-64
2023/11/02 11:22:13;;;;;;;1.53;1.17;;;11.00;99.90;;;;;;5029776;28;20528;-64
2023/11/02 11:24:40;;;;;;;2.07;1.93;;;11.00;99.90;;;;;;5029666;28;20525;-64
2023/11/02 11:27:07;;;;;;;2.00;1.20;;;11.00;99.90;;;;;;5029159;28;20877;-64
2023/11/02 11:29:36;;;;;;;0.83;0.83;;;11.00;99.90;;;;;;5029629;28;20481;-64
2023/11/02 11:32:03;;;;;;;1.10;0.97;;;11.00;99.90;;;;;;5029843;28;20529;-64
2023/11/02 11:35:04;;;;;;;1.10;1.10;;;11.10;99.90;;;;;;5030489;28;20445;-64
2023/11/02 11:37:37;;;;;;;1.43;1.33;;;11.10;99.90;;;;;;5014587;28;20450;-64
2023/11/02 11:40:06;;;;;;;1.77;1.20;;;11.10;99.90;;;;;;5030098;28;20437;-64
2023/11/02 11:42:56;;;;;;;1.40;1.30;;;11.10;99.90;;;;;;5029910;28;20450;-65
2023/11/02 11:45:26;;;;;;;1.80;1.70;;;11.20;99.90;;;;;;5029167;28;20998;-63
2023/11/02 11:47:53;;;;;;;1.47;1.37;;;11.20;99.90;;;;;;5030367;28;20489;-64
2023/11/02 11:50:33;;;;;;;1.70;1.50;;;11.20;99.90;;;;;;5030171;28;20450;-64
2023/11/02 11:53:13;;;;;;;2.00;1.90;;;11.20;99.90;;;;;;5030608;28;20528;-65
2023/11/02 11:55:40;;;;;;;1.55;1.45;;;11.20;99.90;;;;;;5015491;28;20467;-64
2023/11/02 11:58:08;;;;;;;3.70;2.90;;;11.20;99.90;;;;;;5030044;28;20223;-64
2023/11/02 12:00:36;;;;;;;1.33;1.23;;;11.20;99.90;;;;;;5029718;28;20441;-65
2023/11/02 12:03:06;;;;;;;1.77;1.67;;;11.20;99.90;;;;;;5029219;28;20884;-63
2023/11/02 12:05:53;;;;;;;1.53;1.43;;;11.20;99.90;;;;;;5029551;28;20648;-64
2023/11/02 12:08:22;;;;;;;2.73;2.20;;;11.20;99.90;;;;;;5029742;28;20462;-64
2023/11/02 12:10:52;;;;;;;1.30;1.30;;;11.20;99.90;;;;;;5029271;28;20441;-64
2023/11/02 12:13:19;;;;;;;1.13;1.10;;;11.20;99.90;;;;;;5028596;28;20450;-64
2023/11/02 12:15:57;;;;;;;1.13;1.13;;;11.30;99.90;;;;;;5029116;28;20448;-63
2023/11/02 12:18:27;;;;;;;1.03;1.03;;;11.20;99.90;;;;;;5029824;28;20840;-64
2023/11/02 12:20:56;;;;;;;1.80;1.10;;;11.30;99.90;;;;;;5029872;28;20446;-64
2023/11/02 12:23:32;;;;;;;1.63;1.53;;;11.30;99.90;;;;;;5029405;28;20447;-64
2023/11/02 12:26:00;;;;;;;1.63;1.50;;;11.20;99.90;;;;;;5032695;28;20846;-63
2023/11/02 12:28:27;;;;;;;1.83;1.37;;;11.20;99.90;;;;;;5032874;28;21003;-63
2023/11/02 12:30:53;;;;;;;1.10;1.10;;;11.30;99.90;;;;;;5033089;28;20480;-64
2023/11/02 12:33:21;;;;;;;1.40;1.30;;;11.30;99.90;;;;;;5033322;28;20525;-65
2023/11/02 12:35:53;;;;;;;1.43;1.33;;;11.30;99.90;;;;;;5032283;28;20488;-64
2023/11/02 12:38:35;;;;;;;2.20;1.67;;;11.30;99.90;;;;;;5032691;28;20542;-65
2023/11/02 12:41:05;;;;;;;2.10;2.00;;;11.30;99.90;;;;;;5032726;28;20449;-64
2023/11/02 12:43:33;;;;;;;2.10;1.20;;;11.30;99.90;;;;;;5033230;28;20474;-65
2023/11/02 12:46:08;;;;;;;2.47;1.60;;;11.30;99.90;;;;;;5032463;28;20446;-64
2023/11/02 12:48:38;;;;;;;1.23;1.10;;;11.30;99.90;;;;;;5032975;28;20476;-65
2023/11/02 12:51:18;;;;;;;1.57;1.47;;;11.30;99.90;;;;;;5032692;28;20499;-65
2023/11/02 12:53:47;;;;;;;1.43;1.20;;;11.30;99.90;;;;;;5032758;28;20520;-65
2023/11/02 12:56:22;;;;;;;1.27;1.27;;;11.30;99.90;;;;;;5032213;28;20507;-64
2023/11/02 12:58:57;;;;;;;3.07;1.60;;;11.30;99.90;;;;;;5032635;28;20481;-65
2023/11/02 13:01:24;;;;;;;1.10;1.00;;;11.30;99.90;;;;;;5032347;28;20449;-63
2023/11/02 13:04:03;;;;;;;2.23;1.57;;;11.30;99.90;;;;;;5032430;28;20533;-65
2023/11/02 13:06:35;;;;;;;1.13;1.13;;;11.20;99.90;;;;;;5032185;28;20564;-64
2023/11/02 13:09:16;;;;;;;4.83;1.87;;;11.30;99.90;;;;;;5032457;28;20473;-65
2023/11/02 13:11:44;;;;;;;1.20;1.07;;;11.30;99.90;;;;;;5031988;28;21115;-65
2023/11/02 13:14:12;;;;;;;1.40;1.30;;;11.30;99.90;;;;;;5032406;28;20951;-65